sensor_id;sensor_type;location;lat;lon;timestamp;pressure;altitude;pressure_sealevel;temperature;humidity
55424;BME280;41294;42.666;23.350;2023-02-23T00:00:33;94878.56;;;7.15;77.69
55424;BME280;41294;42.666;23.350;2023-02-23T00:03:00;94882.75;;;7.25;77.88
55424;BME280;41294;42.666;23.350;2023-02-23T00:05:30;94872.63;;;7.27;77.45
55424;BME280;41294;42.666;23.350;2023-02-23T00:07:59;94879.84;;;7.23;78.36
55424;BME280;41294;42.666;23.350;2023-02-23T00:10:24;94886.34;;;7.19;77.34
55424;BME280;41294;42.666;23.350;2023-02-23T00:12:56;94889.56;;;7.23;76.88
55424;BME280;41294;42.666;23.350;2023-02-23T00:15:22;94890.88;;;7.02;78.46
55424;BME280;41294;42.666;23.350;2023-02-23T00:17:52;94891.09;;;6.95;78.50
55424;BME280;41294;42.666;23.350;2023-02-23T00:20:17;94892.31;;;6.91;79.35
55424;BME280;41294;42.666;23.350;2023-02-23T00:22:52;94892.22;;;6.94;79.31
55424;BME280;41294;42.666;23.350;2023-02-23T00:25:19;94888.47;;;6.95;78.68
55424;BME280;41294;42.666;23.350;2023-02-23T00:27:44;94889.00;;;7.03;78.23
55424;BME280;41294;42.666;23.350;2023-02-23T00:30:14;94892.31;;;6.91;78.35
55424;BME280;41294;42.666;23.350;2023-02-23T00:32:40;94897.22;;;6.89;78.99
55424;BME280;41294;42.666;23.350;2023-02-23T00:35:06;94891.78;;;6.83;78.80
55424;BME280;41294;42.666;23.350;2023-02-23T00:37:50;94890.63;;;6.84;79.26
55424;BME280;41294;42.666;23.350;2023-02-23T00:40:16;94895.88;;;6.84;79.38
55424;BME280;41294;42.666;23.350;2023-02-23T00:42:43;94897.53;;;6.78;79.24
55424;BME280;41294;42.666;23.350;2023-02-23T00:45:10;94885.78;;;6.70;80.14
55424;BME280;41294;42.666;23.350;2023-02-23T00:47:38;94887.41;;;6.64;79.76
55424;BME280;41294;42.666;23.350;2023-02-23T00:50:03;94888.06;;;6.68;79.72
55424;BME280;41294;42.666;23.350;2023-02-23T00:52:29;94882.66;;;6.75;78.85
55424;BME280;41294;42.666;23.350;2023-02-23T00:54:55;94884.03;;;6.80;79.43
55424;BME280;41294;42.666;23.350;2023-02-23T00:57:21;94884.75;;;6.80;79.31
55424;BME280;41294;42.666;23.350;2023-02-23T00:59:47;94885.22;;;6.63;80.49
55424;BME280;41294;42.666;23.350;2023-02-23T01:02:12;94888.25;;;6.61;80.25
55424;BME280;41294;42.666;23.350;2023-02-23T01:04:38;94891.72;;;6.71;79.66
55424;BME280;41294;42.666;23.350;2023-02-23T01:07:03;94890.31;;;6.82;79.06
55424;BME280;41294;42.666;23.350;2023-02-23T01:09:31;94882.44;;;6.82;79.06
55424;BME280;41294;42.666;23.350;2023-02-23T01:11:57;94896.78;;;6.78;78.93
55424;BME280;41294;42.666;23.350;2023-02-23T01:14:26;94887.69;;;6.82;78.93
55424;BME280;41294;42.666;23.350;2023-02-23T01:16:52;94885.59;;;6.77;78.81
55424;BME280;41294;42.666;23.350;2023-02-23T01:19:18;94889.03;;;6.74;79.23
55424;BME280;41294;42.666;23.350;2023-02-23T01:21:43;94882.66;;;6.75;78.65
55424;BME280;41294;42.666;23.350;2023-02-23T01:24:10;94884.56;;;6.59;79.90
55424;BME280;41294;42.666;23.350;2023-02-23T01:26:40;94880.91;;;6.56;79.83
55424;BME280;41294;42.666;23.350;2023-02-23T01:29:11;94880.91;;;6.56;80.21
55424;BME280;41294;42.666;23.350;2023-02-23T01:31:39;94885.75;;;6.42;80.78
55424;BME280;41294;42.666;23.350;2023-02-23T01:34:05;94876.75;;;6.43;80.26
55424;BME280;41294;42.666;23.350;2023-02-23T01:36:36;94881.00;;;6.53;79.91
55424;BME280;41294;42.666;23.350;2023-02-23T01:39:04;94883.63;;;6.37;80.79
55424;BME280;41294;42.666;23.350;2023-02-23T01:41:33;94884.28;;;6.41;80.70
55424;BME280;41294;42.666;23.350;2023-02-23T01:44:00;94881.59;;;6.29;81.32
55424;BME280;41294;42.666;23.350;2023-02-23T01:46:30;94882.88;;;6.37;80.69
55424;BME280;41294;42.666;23.350;2023-02-23T01:48:57;94882.97;;;6.33;80.51
55424;BME280;41294;42.666;23.350;2023-02-23T01:51:26;94876.38;;;6.29;80.80
55424;BME280;41294;42.666;23.350;2023-02-23T01:54:07;94874.84;;;6.15;81.61
55424;BME280;41294;42.666;23.350;2023-02-23T01:56:37;94881.34;;;6.23;81.98
55424;BME280;41294;42.666;23.350;2023-02-23T01:59:08;94874.09;;;6.31;81.06
55424;BME280;41294;42.666;23.350;2023-02-23T02:01:37;94874.09;;;6.31;81.08
55424;BME280;41294;42.666;23.350;2023-02-23T02:04:04;94872.97;;;6.16;82.02
55424;BME280;41294;42.666;23.350;2023-02-23T02:06:30;94878.19;;;6.16;81.86
55424;BME280;41294;42.666;23.350;2023-02-23T02:09:07;94872.06;;;6.22;81.73
55424;BME280;41294;42.666;23.350;2023-02-23T02:11:35;94869.31;;;6.13;81.83
55424;BME280;41294;42.666;23.350;2023-02-23T02:14:10;94873.06;;;6.12;81.66
55424;BME280;41294;42.666;23.350;2023-02-23T02:23:05;94875.44;;;6.07;81.88
55424;BME280;41294;42.666;23.350;2023-02-23T02:39:16;94878.84;;;6.04;81.91
55424;BME280;41294;42.666;23.350;2023-02-23T02:45:04;94870.22;;;5.91;82.84
55424;BME280;41294;42.666;23.350;2023-02-23T02:47:46;94876.25;;;5.88;82.64
55424;BME280;41294;42.666;23.350;2023-02-23T02:50:22;94876.78;;;5.79;83.38
55424;BME280;41294;42.666;23.350;2023-02-23T02:52:56;94875.25;;;5.82;83.28
55424;BME280;41294;42.666;23.350;2023-02-23T02:55:27;94880.00;;;5.87;83.04
55424;BME280;41294;42.666;23.350;2023-02-23T02:57:58;94871.09;;;5.84;82.36
55424;BME280;41294;42.666;23.350;2023-02-23T03:00:35;94876.75;;;5.83;82.55
55424;BME280;41294;42.666;23.350;2023-02-23T03:03:39;94879.19;;;5.90;82.65
55424;BME280;41294;42.666;23.350;2023-02-23T03:06:45;94873.28;;;5.86;81.87
55424;BME280;41294;42.666;23.350;2023-02-23T03:18:43;94880.91;;;5.61;83.49
55424;BME280;41294;42.666;23.350;2023-02-23T03:21:47;94882.72;;;5.64;83.54
55424;BME280;41294;42.666;23.350;2023-02-23T03:24:51;94881.72;;;5.58;83.49
55424;BME280;41294;42.666;23.350;2023-02-23T03:27:53;94886.22;;;5.58;83.41
55424;BME280;41294;42.666;23.350;2023-02-23T03:36:23;94890.19;;;5.46;84.35
55424;BME280;41294;42.666;23.350;2023-02-23T03:39:20;94894.47;;;5.56;83.75
55424;BME280;41294;42.666;23.350;2023-02-23T03:42:12;94898.22;;;5.55;83.88
55424;BME280;41294;42.666;23.350;2023-02-23T03:45:05;94887.63;;;5.62;83.87
55424;BME280;41294;42.666;23.350;2023-02-23T03:47:52;94895.78;;;5.64;83.44
55424;BME280;41294;42.666;23.350;2023-02-23T03:50:53;94907.03;;;5.61;83.20
55424;BME280;41294;42.666;23.350;2023-02-23T03:53:47;94903.09;;;5.53;84.26
55424;BME280;41294;42.666;23.350;2023-02-23T03:56:36;94914.53;;;5.59;83.71
55424;BME280;41294;42.666;23.350;2023-02-23T03:59:25;94911.59;;;5.57;83.61
55424;BME280;41294;42.666;23.350;2023-02-23T04:02:13;94909.47;;;5.52;83.36
55424;BME280;41294;42.666;23.350;2023-02-23T04:05:01;94907.53;;;5.37;84.64
55424;BME280;41294;42.666;23.350;2023-02-23T04:07:49;94911.63;;;5.38;84.95
55424;BME280;41294;42.666;23.350;2023-02-23T04:10:39;94910.72;;;5.28;85.59
55424;BME280;41294;42.666;23.350;2023-02-23T04:13:25;94911.53;;;5.41;85.08
55424;BME280;41294;42.666;23.350;2023-02-23T04:18:26;94915.38;;;5.37;85.33
55424;BME280;41294;42.666;23.350;2023-02-23T04:20:53;94907.69;;;5.30;85.32
55424;BME280;41294;42.666;23.350;2023-02-23T04:23:19;94910.03;;;5.24;86.03
55424;BME280;41294;42.666;23.350;2023-02-23T04:25:47;94903.94;;;5.31;85.66
55424;BME280;41294;42.666;23.350;2023-02-23T04:28:13;94906.97;;;5.29;85.60
55424;BME280;41294;42.666;23.350;2023-02-23T04:30:38;94903.75;;;5.22;85.94
55424;BME280;41294;42.666;23.350;2023-02-23T04:33:05;94908.03;;;5.32;86.00
55424;BME280;41294;42.666;23.350;2023-02-23T04:35:30;94916.06;;;5.21;85.99
55424;BME280;41294;42.666;23.350;2023-02-23T04:37:56;94915.19;;;5.28;85.93
55424;BME280;41294;42.666;23.350;2023-02-23T04:40:23;94917.13;;;5.24;85.54
55424;BME280;41294;42.666;23.350;2023-02-23T04:42:48;94905.50;;;5.28;85.60
55424;BME280;41294;42.666;23.350;2023-02-23T04:45:13;94913.13;;;5.19;86.71
55424;BME280;41294;42.666;23.350;2023-02-23T04:47:39;94913.84;;;5.20;86.38
55424;BME280;41294;42.666;23.350;2023-02-23T04:50:05;94914.25;;;5.18;86.86
55424;BME280;41294;42.666;23.350;2023-02-23T04:52:30;94910.84;;;5.21;86.18
55424;BME280;41294;42.666;23.350;2023-02-23T04:54:56;94920.47;;;5.24;86.25
55424;BME280;41294;42.666;23.350;2023-02-23T04:57:21;94912.97;;;5.26;86.31
55424;BME280;41294;42.666;23.350;2023-02-23T04:59:46;94912.84;;;5.33;86.00
55424;BME280;41294;42.666;23.350;2023-02-23T05:02:12;94916.47;;;5.39;85.34
55424;BME280;41294;42.666;23.350;2023-02-23T05:04:37;94917.06;;;5.27;85.73
55424;BME280;41294;42.666;23.350;2023-02-23T05:07:03;94923.63;;;5.16;86.60
55424;BME280;41294;42.666;23.350;2023-02-23T05:09:29;94915.94;;;5.09;86.71
55424;BME280;41294;42.666;23.350;2023-02-23T05:11:55;94915.81;;;5.16;86.75
55424;BME280;41294;42.666;23.350;2023-02-23T05:14:21;94913.50;;;5.18;86.90
55424;BME280;41294;42.666;23.350;2023-02-23T05:16:47;94915.81;;;5.16;86.65
55424;BME280;41294;42.666;23.350;2023-02-23T05:19:12;94919.28;;;5.09;87.47
55424;BME280;41294;42.666;23.350;2023-02-23T05:21:38;94918.94;;;5.07;87.07
55424;BME280;41294;42.666;23.350;2023-02-23T05:24:04;94923.03;;;5.08;87.17
55424;BME280;41294;42.666;23.350;2023-02-23T05:26:29;94923.03;;;5.08;86.97
55424;BME280;41294;42.666;23.350;2023-02-23T05:28:55;94941.34;;;5.24;86.56
55424;BME280;41294;42.666;23.350;2023-02-23T05:31:21;94934.91;;;5.83;85.00
55424;BME280;41294;42.666;23.350;2023-02-23T05:33:47;94934.13;;;6.18;82.45
55424;BME280;41294;42.666;23.350;2023-02-23T05:36:15;94927.16;;;6.59;80.68
55424;BME280;41294;42.666;23.350;2023-02-23T05:38:42;94935.47;;;6.54;79.66
55424;BME280;41294;42.666;23.350;2023-02-23T05:41:10;94936.16;;;6.43;80.28
55424;BME280;41294;42.666;23.350;2023-02-23T05:43:35;94940.19;;;6.31;80.70
55424;BME280;41294;42.666;23.350;2023-02-23T05:46:09;94939.19;;;6.25;81.37
55424;BME280;41294;42.666;23.350;2023-02-23T05:48:35;94950.84;;;6.37;80.64
55424;BME280;41294;42.666;23.350;2023-02-23T05:51:02;94948.47;;;6.74;78.73
55424;BME280;41294;42.666;23.350;2023-02-23T05:53:27;94956.34;;;6.86;78.60
55424;BME280;41294;42.666;23.350;2023-02-23T05:55:52;94941.09;;;7.26;77.21
55424;BME280;41294;42.666;23.350;2023-02-23T05:58:18;94959.06;;;7.52;75.61
55424;BME280;41294;42.666;23.350;2023-02-23T06:00:43;94962.25;;;8.09;73.69
55424;BME280;41294;42.666;23.350;2023-02-23T06:03:09;94967.66;;;8.77;71.10
55424;BME280;41294;42.666;23.350;2023-02-23T06:05:35;94958.84;;;9.47;68.24
55424;BME280;41294;42.666;23.350;2023-02-23T06:08:01;94964.44;;;10.10;66.12
55424;BME280;41294;42.666;23.350;2023-02-23T06:10:26;94963.53;;;10.43;64.46
55424;BME280;41294;42.666;23.350;2023-02-23T06:12:52;94963.88;;;10.72;62.16
55424;BME280;41294;42.666;23.350;2023-02-23T06:15:17;94968.13;;;11.32;60.76
55424;BME280;41294;42.666;23.350;2023-02-23T06:17:43;94963.88;;;11.70;59.61
55424;BME280;41294;42.666;23.350;2023-02-23T06:20:09;94967.78;;;11.93;57.55
55424;BME280;41294;42.666;23.350;2023-02-23T06:22:34;94965.75;;;12.20;57.05
55424;BME280;41294;42.666;23.350;2023-02-23T06:25:00;94968.56;;;11.48;57.86
55424;BME280;41294;42.666;23.350;2023-02-23T06:27:29;94968.28;;;11.29;58.73
55424;BME280;41294;42.666;23.350;2023-02-23T06:29:54;94974.84;;;12.51;56.36
55424;BME280;41294;42.666;23.350;2023-02-23T06:32:20;94971.59;;;12.24;55.27
55424;BME280;41294;42.666;23.350;2023-02-23T06:34:45;94972.97;;;10.98;60.33
55424;BME280;41294;42.666;23.350;2023-02-23T06:37:11;94970.06;;;11.23;59.63
55424;BME280;41294;42.666;23.350;2023-02-23T06:39:37;94974.72;;;11.54;58.22
55424;BME280;41294;42.666;23.350;2023-02-23T06:42:03;94970.63;;;12.13;55.53
55424;BME280;41294;42.666;23.350;2023-02-23T06:44:28;94983.94;;;12.18;55.52
55424;BME280;41294;42.666;23.350;2023-02-23T06:46:53;94978.41;;;12.72;54.25
55424;BME280;41294;42.666;23.350;2023-02-23T06:49:19;94981.59;;;13.22;52.89
55424;BME280;41294;42.666;23.350;2023-02-23T06:51:44;94985.91;;;12.97;53.10
55424;BME280;41294;42.666;23.350;2023-02-23T06:54:10;94984.13;;;13.17;51.97
55424;BME280;41294;42.666;23.350;2023-02-23T06:56:35;94986.66;;;13.49;51.30
55424;BME280;41294;42.666;23.350;2023-02-23T06:59:00;94983.69;;;14.28;50.40
55424;BME280;41294;42.666;23.350;2023-02-23T07:01:26;94979.88;;;14.15;49.71
55424;BME280;41294;42.666;23.350;2023-02-23T07:03:51;94976.59;;;14.54;49.27
55424;BME280;41294;42.666;23.350;2023-02-23T07:06:17;94974.22;;;14.76;48.33
55424;BME280;41294;42.666;23.350;2023-02-23T07:08:42;94975.97;;;14.79;48.64
55424;BME280;41294;42.666;23.350;2023-02-23T07:11:09;94983.63;;;13.27;51.52
55424;BME280;41294;42.666;23.350;2023-02-23T07:13:35;94983.06;;;11.17;57.91
55424;BME280;41294;42.666;23.350;2023-02-23T07:16:01;94985.31;;;10.44;61.87
55424;BME280;41294;42.666;23.350;2023-02-23T07:18:27;94981.16;;;10.73;61.01
55424;BME280;41294;42.666;23.350;2023-02-23T07:20:52;94988.44;;;10.69;61.69
55424;BME280;41294;42.666;23.350;2023-02-23T07:23:17;94987.44;;;10.75;60.81
55424;BME280;41294;42.666;23.350;2023-02-23T07:25:43;94989.56;;;10.50;62.80
55424;BME280;41294;42.666;23.350;2023-02-23T07:28:09;94985.94;;;11.91;58.25
55424;BME280;41294;42.666;23.350;2023-02-23T07:30:38;94983.88;;;12.36;56.46
55424;BME280;41294;42.666;23.350;2023-02-23T07:33:03;94979.84;;;11.67;58.26
55424;BME280;41294;42.666;23.350;2023-02-23T07:35:29;94977.78;;;11.35;nan
55424;BME280;41294;42.666;23.350;2023-02-23T07:37:54;94982.09;;;12.98;54.54
55424;BME280;41294;42.666;23.350;2023-02-23T07:40:21;94984.56;;;12.13;55.93
55424;BME280;41294;42.666;23.350;2023-02-23T07:42:47;94973.06;;;11.93;58.01
55424;BME280;41294;42.666;23.350;2023-02-23T07:45:12;94973.75;;;12.34;56.13
55424;BME280;41294;42.666;23.350;2023-02-23T07:47:38;94978.16;;;12.61;55.37
55424;BME280;41294;42.666;23.350;2023-02-23T07:50:05;94975.81;;;12.63;55.94
55424;BME280;41294;42.666;23.350;2023-02-23T07:52:35;94973.72;;;14.38;51.45
55424;BME280;41294;42.666;23.350;2023-02-23T07:55:01;94960.84;;;14.65;49.71
55424;BME280;41294;42.666;23.350;2023-02-23T07:57:26;94962.19;;;15.35;47.87
55424;BME280;41294;42.666;23.350;2023-02-23T07:59:52;94960.34;;;14.81;48.92
55424;BME280;41294;42.666;23.350;2023-02-23T08:02:17;94962.22;;;13.97;50.31
55424;BME280;41294;42.666;23.350;2023-02-23T08:04:43;94968.13;;;13.20;53.33
55424;BME280;41294;42.666;23.350;2023-02-23T08:07:09;94960.25;;;13.78;52.03
55424;BME280;41294;42.666;23.350;2023-02-23T08:09:35;94961.03;;;15.41;48.22
55424;BME280;41294;42.666;23.350;2023-02-23T08:12:02;94956.66;;;16.98;44.31
55424;BME280;41294;42.666;23.350;2023-02-23T08:14:27;94961.47;;;15.60;47.04
55424;BME280;41294;42.666;23.350;2023-02-23T08:16:53;94953.03;;;15.36;46.79
55424;BME280;41294;42.666;23.350;2023-02-23T08:19:18;94954.69;;;14.74;48.69
55424;BME280;41294;42.666;23.350;2023-02-23T08:21:51;94955.53;;;15.45;47.49
55424;BME280;41294;42.666;23.350;2023-02-23T08:24:16;94948.41;;;15.56;47.30
55424;BME280;41294;42.666;23.350;2023-02-23T08:26:42;94954.38;;;15.51;46.46
55424;BME280;41294;42.666;23.350;2023-02-23T08:29:08;94954.59;;;16.71;44.44
55424;BME280;41294;42.666;23.350;2023-02-23T08:31:34;94962.88;;;15.55;46.40
55424;BME280;41294;42.666;23.350;2023-02-23T08:34:01;94953.59;;;16.27;45.57
55424;BME280;41294;42.666;23.350;2023-02-23T08:36:27;94959.03;;;16.90;44.27
55424;BME280;41294;42.666;23.350;2023-02-23T08:38:53;94957.53;;;15.75;45.51
55424;BME280;41294;42.666;23.350;2023-02-23T08:41:19;94960.94;;;16.79;44.20
55424;BME280;41294;42.666;23.350;2023-02-23T08:43:45;94953.56;;;15.65;46.43
55424;BME280;41294;42.666;23.350;2023-02-23T08:46:11;94951.75;;;15.51;46.77
55424;BME280;41294;42.666;23.350;2023-02-23T08:48:36;94957.38;;;15.59;46.68
55424;BME280;41294;42.666;23.350;2023-02-23T08:51:05;94952.09;;;17.89;42.57
55424;BME280;41294;42.666;23.350;2023-02-23T08:53:31;94953.13;;;16.64;43.83
55424;BME280;41294;42.666;23.350;2023-02-23T08:56:02;94950.06;;;15.28;46.54
55424;BME280;41294;42.666;23.350;2023-02-23T08:58:28;94949.16;;;16.91;44.40
55424;BME280;41294;42.666;23.350;2023-02-23T09:00:58;94948.16;;;18.78;40.75
55424;BME280;41294;42.666;23.350;2023-02-23T09:03:26;94944.88;;;20.03;38.25
55424;BME280;41294;42.666;23.350;2023-02-23T09:05:57;94938.91;;;21.53;35.80
55424;BME280;41294;42.666;23.350;2023-02-23T09:08:23;94942.19;;;22.28;34.77
55424;BME280;41294;42.666;23.350;2023-02-23T09:10:48;94938.00;;;21.09;35.80
55424;BME280;41294;42.666;23.350;2023-02-23T09:13:14;94948.91;;;18.56;38.85
55424;BME280;41294;42.666;23.350;2023-02-23T09:15:41;94937.56;;;18.28;40.78
55424;BME280;41294;42.666;23.350;2023-02-23T09:18:08;94946.66;;;20.49;37.23
55424;BME280;41294;42.666;23.350;2023-02-23T09:20:34;94936.56;;;19.32;38.40
55424;BME280;41294;42.666;23.350;2023-02-23T09:23:00;94942.03;;;20.97;36.44
55424;BME280;41294;42.666;23.350;2023-02-23T09:25:26;94930.53;;;20.30;36.69
55424;BME280;41294;42.666;23.350;2023-02-23T09:27:54;94933.28;;;18.93;39.04
55424;BME280;41294;42.666;23.350;2023-02-23T09:30:21;94938.88;;;18.90;39.88
55424;BME280;41294;42.666;23.350;2023-02-23T09:32:48;94943.66;;;21.05;36.24
55424;BME280;41294;42.666;23.350;2023-02-23T09:35:14;94933.63;;;19.35;37.68
55424;BME280;41294;42.666;23.350;2023-02-23T09:37:51;94943.63;;;18.02;40.76
55424;BME280;41294;42.666;23.350;2023-02-23T09:40:24;94935.72;;;18.91;40.73
55424;BME280;41294;42.666;23.350;2023-02-23T09:48:40;94936.09;;;19.22;39.54
55424;BME280;41294;42.666;23.350;2023-02-23T09:51:09;94932.78;;;19.91;37.12
55424;BME280;41294;42.666;23.350;2023-02-23T09:53:41;94932.03;;;19.05;38.29
55424;BME280;41294;42.666;23.350;2023-02-23T09:58:50;94925.63;;;18.68;38.58
55424;BME280;41294;42.666;23.350;2023-02-23T10:04:34;94934.59;;;18.59;38.74
55424;BME280;41294;42.666;23.350;2023-02-23T10:12:56;94922.69;;;21.28;35.61
55424;BME280;41294;42.666;23.350;2023-02-23T10:18:18;94913.88;;;22.58;33.21
55424;BME280;41294;42.666;23.350;2023-02-23T10:20:55;94907.19;;;20.55;35.47
55424;BME280;41294;42.666;23.350;2023-02-23T10:23:31;94903.63;;;20.94;35.46
55424;BME280;41294;42.666;23.350;2023-02-23T10:25:59;94906.16;;;21.42;34.24
55424;BME280;41294;42.666;23.350;2023-02-23T10:28:27;94897.81;;;20.90;35.05
55424;BME280;41294;42.666;23.350;2023-02-23T10:30:55;94897.91;;;19.79;36.35
55424;BME280;41294;42.666;23.350;2023-02-23T10:33:34;94895.41;;;18.00;39.82
55424;BME280;41294;42.666;23.350;2023-02-23T10:36:12;94888.97;;;18.74;38.71
55424;BME280;41294;42.666;23.350;2023-02-23T10:38:39;94880.16;;;17.78;40.14
55424;BME280;41294;42.666;23.350;2023-02-23T10:41:05;94877.00;;;17.96;40.07
55424;BME280;41294;42.666;23.350;2023-02-23T10:43:31;94883.06;;;18.29;40.15
55424;BME280;41294;42.666;23.350;2023-02-23T10:45:57;94880.84;;;19.01;38.76
55424;BME280;41294;42.666;23.350;2023-02-23T10:48:27;94877.22;;;18.14;39.88
55424;BME280;41294;42.666;23.350;2023-02-23T10:50:56;94873.41;;;18.89;39.08
55424;BME280;41294;42.666;23.350;2023-02-23T10:53:33;94868.09;;;19.98;36.44
55424;BME280;41294;42.666;23.350;2023-02-23T10:56:08;94864.06;;;20.40;35.82
55424;BME280;41294;42.666;23.350;2023-02-23T10:58:55;94858.91;;;20.66;35.77
55424;BME280;41294;42.666;23.350;2023-02-23T11:01:34;94862.88;;;21.01;35.12
55424;BME280;41294;42.666;23.350;2023-02-23T11:04:30;94854.13;;;20.11;36.39
55424;BME280;41294;42.666;23.350;2023-02-23T11:07:16;94857.53;;;20.83;36.06
55424;BME280;41294;42.666;23.350;2023-02-23T11:09:42;94847.44;;;21.62;34.42
55424;BME280;41294;42.666;23.350;2023-02-23T11:14:55;94836.34;;;19.25;36.45
55424;BME280;41294;42.666;23.350;2023-02-23T11:17:41;94845.19;;;18.47;38.61
55424;BME280;41294;42.666;23.350;2023-02-23T11:20:24;94847.66;;;17.14;41.04
55424;BME280;41294;42.666;23.350;2023-02-23T11:22:52;94837.81;;;17.75;40.67
55424;BME280;41294;42.666;23.350;2023-02-23T11:25:27;94837.09;;;18.75;39.01
55424;BME280;41294;42.666;23.350;2023-02-23T11:27:53;94833.22;;;19.85;38.23
55424;BME280;41294;42.666;23.350;2023-02-23T11:30:22;94831.28;;;20.76;36.21
55424;BME280;41294;42.666;23.350;2023-02-23T11:32:57;94830.31;;;20.79;35.59
55424;BME280;41294;42.666;23.350;2023-02-23T11:35:34;94828.47;;;20.26;36.38
55424;BME280;41294;42.666;23.350;2023-02-23T11:38:14;94823.13;;;19.73;36.95
55424;BME280;41294;42.666;23.350;2023-02-23T11:40:40;94822.34;;;19.49;37.27
55424;BME280;41294;42.666;23.350;2023-02-23T11:43:14;94813.81;;;18.70;38.77
55424;BME280;41294;42.666;23.350;2023-02-23T11:45:51;94815.06;;;17.57;40.56
55424;BME280;41294;42.666;23.350;2023-02-23T11:50:49;94816.00;;;17.82;40.47
55424;BME280;41294;42.666;23.350;2023-02-23T11:53:36;94811.19;;;17.58;40.29
55424;BME280;41294;42.666;23.350;2023-02-23T11:56:05;94819.09;;;16.93;42.17
55424;BME280;41294;42.666;23.350;2023-02-23T11:58:46;94812.22;;;16.64;43.05
55424;BME280;41294;42.666;23.350;2023-02-23T12:01:20;94803.19;;;17.42;41.34
55424;BME280;41294;42.666;23.350;2023-02-23T12:03:56;94802.91;;;17.95;40.22
55424;BME280;41294;42.666;23.350;2023-02-23T12:09:23;94805.31;;;18.82;38.74
55424;BME280;41294;42.666;23.350;2023-02-23T12:17:03;94801.91;;;18.09;39.61
55424;BME280;41294;42.666;23.350;2023-02-23T12:19:38;94790.84;;;19.07;38.10
55424;BME280;41294;42.666;23.350;2023-02-23T12:24:51;94793.22;;;17.97;39.95
55424;BME280;41294;42.666;23.350;2023-02-23T12:27:25;94795.50;;;18.50;39.65
55424;BME280;41294;42.666;23.350;2023-02-23T12:32:53;94792.50;;;17.97;40.54
55424;BME280;41294;42.666;23.350;2023-02-23T12:35:30;94791.00;;;18.28;40.38
55424;BME280;41294;42.666;23.350;2023-02-23T12:38:02;94788.22;;;18.96;39.23
55424;BME280;41294;42.666;23.350;2023-02-23T12:40:33;94781.41;;;19.41;38.20
55424;BME280;41294;42.666;23.350;2023-02-23T12:43:54;94788.16;;;18.67;39.02
55424;BME280;41294;42.666;23.350;2023-02-23T12:46:25;94789.56;;;17.95;41.33
55424;BME280;41294;42.666;23.350;2023-02-23T12:49:03;94788.69;;;17.32;42.46
55424;BME280;41294;42.666;23.350;2023-02-23T12:54:16;94784.56;;;17.64;42.25
55424;BME280;41294;42.666;23.350;2023-02-23T13:02:32;94777.75;;;17.85;41.46
55424;BME280;41294;42.666;23.350;2023-02-23T13:05:12;94772.00;;;17.48;42.35
55424;BME280;41294;42.666;23.350;2023-02-23T13:08:17;94770.50;;;17.74;41.97
55424;BME280;41294;42.666;23.350;2023-02-23T13:16:36;94771.38;;;18.20;40.75
55424;BME280;41294;42.666;23.350;2023-02-23T13:19:17;94771.16;;;18.08;40.87
55424;BME280;41294;42.666;23.350;2023-02-23T13:22:43;94770.63;;;18.25;40.87
55424;BME280;41294;42.666;23.350;2023-02-23T13:25:24;94777.66;;;18.17;40.74
55424;BME280;41294;42.666;23.350;2023-02-23T13:27:57;94769.31;;;17.59;41.68
55424;BME280;41294;42.666;23.350;2023-02-23T13:30:29;94773.91;;;17.47;42.44
55424;BME280;41294;42.666;23.350;2023-02-23T13:33:14;94765.19;;;17.69;41.97
55424;BME280;41294;42.666;23.350;2023-02-23T13:35:41;94766.66;;;17.42;42.39
55424;BME280;41294;42.666;23.350;2023-02-23T13:38:21;94762.81;;;17.38;42.50
55424;BME280;41294;42.666;23.350;2023-02-23T13:41:04;94766.88;;;17.72;41.67
55424;BME280;41294;42.666;23.350;2023-02-23T13:43:38;94767.16;;;17.30;42.54
55424;BME280;41294;42.666;23.350;2023-02-23T13:46:27;94766.66;;;17.59;42.31
55424;BME280;41294;42.666;23.350;2023-02-23T13:51:59;94772.22;;;17.61;41.88
55424;BME280;41294;42.666;23.350;2023-02-23T13:54:31;94762.47;;;17.91;41.25
55424;BME280;41294;42.666;23.350;2023-02-23T13:57:02;94776.97;;;18.06;41.07
55424;BME280;41294;42.666;23.350;2023-02-23T13:59:49;94776.72;;;18.15;40.98
55424;BME280;41294;42.666;23.350;2023-02-23T14:02:29;94768.22;;;18.27;40.57
55424;BME280;41294;42.666;23.350;2023-02-23T14:07:45;94770.09;;;18.38;40.37
55424;BME280;41294;42.666;23.350;2023-02-23T14:10:18;94764.47;;;17.74;41.31
55424;BME280;41294;42.666;23.350;2023-02-23T14:13:05;94767.38;;;17.76;41.22
55424;BME280;41294;42.666;23.350;2023-02-23T14:21:12;94759.38;;;17.81;40.51
55424;BME280;41294;42.666;23.350;2023-02-23T14:24:02;94767.56;;;17.94;41.70
55424;BME280;41294;42.666;23.350;2023-02-23T14:31:57;94769.53;;;16.90;46.01
55424;BME280;41294;42.666;23.350;2023-02-23T14:34:43;94762.03;;;17.05;46.04
55424;BME280;41294;42.666;23.350;2023-02-23T14:37:34;94762.03;;;17.10;46.11
55424;BME280;41294;42.666;23.350;2023-02-23T14:40:13;94774.34;;;16.75;46.64
55424;BME280;41294;42.666;23.350;2023-02-23T14:42:41;94781.75;;;16.54;47.47
55424;BME280;41294;42.666;23.350;2023-02-23T14:45:24;94796.47;;;16.50;47.36
55424;BME280;41294;42.666;23.350;2023-02-23T14:47:52;94778.81;;;16.36;48.19
55424;BME280;41294;42.666;23.350;2023-02-23T14:50:31;94795.47;;;16.31;48.07
55424;BME280;41294;42.666;23.350;2023-02-23T14:52:58;94793.41;;;16.15;48.53
55424;BME280;41294;42.666;23.350;2023-02-23T14:55:33;94792.13;;;16.00;48.97
55424;BME280;41294;42.666;23.350;2023-02-23T14:58:03;94790.91;;;15.95;49.38
55424;BME280;41294;42.666;23.350;2023-02-23T15:00:31;94790.88;;;15.90;49.57
55424;BME280;41294;42.666;23.350;2023-02-23T15:03:03;94793.19;;;15.77;50.10
55424;BME280;41294;42.666;23.350;2023-02-23T15:08:12;94800.16;;;15.69;50.12
55424;BME280;41294;42.666;23.350;2023-02-23T15:10:41;94802.31;;;15.34;51.36